createdAt,value
2023-06-04T00:01:32.655Z,98701.16
2023-06-04T00:04:01.171Z,98695.75
2023-06-04T00:06:29.631Z,98694.94
2023-06-04T00:08:58.236Z,98684.16
2023-06-04T00:11:27.747Z,98683.28
2023-06-04T00:13:56.542Z,98678.75
2023-06-04T00:16:26.388Z,98676.06
2023-06-04T00:18:55.010Z,98679.75
2023-06-04T00:21:24.373Z,98677.91
2023-06-04T00:23:52.839Z,98677.06
2023-06-04T00:26:21.656Z,98672.72
2023-06-04T00:28:50.126Z,98678.94
2023-06-04T00:31:19.125Z,98679.97
2023-06-04T00:33:49.465Z,98678.94
2023-06-04T00:36:18.108Z,98680.78
2023-06-04T00:38:46.716Z,98675.41
2023-06-04T00:41:15.114Z,98670.00
2023-06-04T00:43:47.107Z,98678.09
2023-06-04T00:46:19.511Z,98679.09
2023-06-04T00:48:49.498Z,98675.56
2023-06-04T00:51:17.998Z,98674.56
2023-06-04T00:53:46.415Z,98676.41
2023-06-04T00:56:15.264Z,98667.47
2023-06-04T00:58:44.104Z,98666.63
2023-06-04T01:01:17.619Z,98667.47
2023-06-04T01:03:49.361Z,98662.09
2023-06-04T01:06:23.995Z,98660.41
2023-06-04T01:08:55.581Z,98656.72
2023-06-04T01:11:37.213Z,98655.84
2023-06-04T01:14:06.312Z,98662.09
2023-06-04T01:16:37.665Z,98655.84
2023-06-04T01:19:10.043Z,98664.94
2023-06-04T01:21:40.097Z,98655.00
2023-06-04T01:24:09.387Z,98662.25
2023-06-04T01:26:38.822Z,98657.88
2023-06-04T01:29:08.591Z,98662.44
2023-06-04T01:31:37.178Z,98661.41
2023-06-04T01:34:09.888Z,98657.03
2023-06-04T01:36:38.476Z,98657.88
2023-06-04T01:39:06.844Z,98665.13
2023-06-04T01:41:35.477Z,98658.91
2023-06-04T01:44:03.855Z,98660.75
2023-06-04T01:46:32.525Z,98657.03
2023-06-04T01:49:01.003Z,98661.75
2023-06-04T01:51:31.387Z,98656.22
2023-06-04T01:53:59.936Z,98651.81
2023-06-04T01:56:29.030Z,98662.59
2023-06-04T01:58:57.764Z,98654.72
2023-06-04T02:01:26.184Z,98659.06
2023-06-04T02:03:54.633Z,98656.38
2023-06-04T02:06:23.296Z,98652.00
2023-06-04T02:08:55.311Z,98653.69
2023-06-04T02:11:24.291Z,98655.53
2023-06-04T02:13:52.785Z,98655.72
2023-06-04T02:16:21.521Z,98651.19
2023-06-04T02:18:50.085Z,98650.34
2023-06-04T02:21:18.700Z,98656.56
2023-06-04T02:23:47.282Z,98647.66
2023-06-04T02:26:17.102Z,98655.72
2023-06-04T02:28:45.595Z,98658.44
2023-06-04T02:31:14.014Z,98661.13
2023-06-04T02:33:42.594Z,98657.56
2023-06-04T02:36:11.588Z,98660.25
2023-06-04T02:38:40.045Z,98656.72
2023-06-04T02:41:08.978Z,98654.03
2023-06-04T02:43:40.726Z,98656.72
2023-06-04T02:46:09.518Z,98649.47
2023-06-04T02:48:38.014Z,98654.03
2023-06-04T02:51:07.202Z,98653.22
2023-06-04T02:53:35.872Z,98649.69
2023-06-04T02:56:04.286Z,98654.03
2023-06-04T02:58:32.898Z,98652.38
2023-06-04T03:01:02.722Z,98656.72
2023-06-04T03:03:32.643Z,98646.97
2023-06-04T03:06:03.719Z,98653.38
2023-06-04T03:08:32.096Z,98653.22
2023-06-04T03:11:00.683Z,98650.69
2023-06-04T03:13:29.136Z,98644.47
2023-06-04T03:15:58.392Z,98648.84
2023-06-04T03:18:28.157Z,98650.69
2023-06-04T03:20:56.963Z,98647.97
2023-06-04T03:23:25.458Z,98650.69
2023-06-04T03:25:54.148Z,98655.22
2023-06-04T03:28:22.603Z,98654.41
2023-06-04T03:30:51.014Z,98657.91
2023-06-04T03:33:21.223Z,98659.78
2023-06-04T03:35:51.907Z,98656.25
2023-06-04T03:38:20.650Z,98662.47
2023-06-04T03:40:49.120Z,98656.25
2023-06-04T03:43:17.569Z,98661.44
2023-06-04T03:45:46.163Z,98666.00
2023-06-04T03:48:14.537Z,98658.94
2023-06-04T03:50:43.892Z,98665.16
2023-06-04T03:53:13.770Z,98669.72
2023-06-04T03:55:42.147Z,98668.88
2023-06-04T03:58:12.925Z,98669.72
2023-06-04T04:00:41.363Z,98676.97
2023-06-04T04:03:11.304Z,98663.50
2023-06-04T04:05:39.934Z,98667.03
2023-06-04T04:08:10.145Z,98669.72
2023-06-04T04:10:40.050Z,98664.34
2023-06-04T04:13:08.420Z,98666.19
2023-06-04T04:15:37.365Z,98669.72
2023-06-04T04:18:05.994Z,98666.19
2023-06-04T04:20:34.421Z,98668.69
2023-06-04T04:23:02.913Z,98662.47
2023-06-04T04:25:33.665Z,98662.47
2023-06-04T04:28:03.669Z,98653.56
2023-06-04T04:30:34.703Z,98664.13
2023-06-04T04:33:03.415Z,98658.75
2023-06-04T04:35:33.768Z,98663.31
2023-06-04T04:38:04.537Z,98661.44
2023-06-04T04:40:33.167Z,98657.91
2023-06-04T04:43:02.962Z,98669.53
2023-06-04T04:45:31.450Z,98670.38
2023-06-04T04:47:59.891Z,98672.06
2023-06-04T04:50:28.520Z,98673.91
2023-06-04T04:52:56.924Z,98675.78
2023-06-04T04:55:25.668Z,98677.44
2023-06-04T04:57:54.163Z,98677.44
2023-06-04T05:00:23.922Z,98680.97
2023-06-04T05:02:52.511Z,98677.44
2023-06-04T05:05:20.991Z,98679.97
2023-06-04T05:07:49.335Z,98679.97
2023-06-04T05:10:18.516Z,98682.66
2023-06-04T05:12:54.283Z,98687.03
2023-06-04T05:15:25.867Z,98690.75
2023-06-04T05:17:54.467Z,98688.06
2023-06-04T05:20:23.923Z,98688.88
2023-06-04T05:22:53.693Z,98684.31
2023-06-04T05:25:22.720Z,98685.16
2023-06-04T05:27:51.725Z,98687.03
2023-06-04T05:30:20.230Z,98686.00
2023-06-04T05:32:51.908Z,98686.81
2023-06-04T05:35:20.719Z,98689.34
2023-06-04T05:37:55.604Z,98685.00
2023-06-04T05:40:24.133Z,98683.97
2023-06-04T05:42:52.598Z,98689.34
2023-06-04T05:45:21.110Z,98684.81
2023-06-04T05:47:50.897Z,98696.41
2023-06-04T05:50:19.516Z,98694.59
2023-06-04T05:52:48.013Z,98698.09
2023-06-04T05:55:17.901Z,98701.63
2023-06-04T05:57:46.384Z,98698.09
2023-06-04T06:00:15.878Z,98704.31
2023-06-04T06:02:44.908Z,98698.94
2023-06-04T06:05:14.820Z,98698.94
2023-06-04T06:07:43.841Z,98707.88
2023-06-04T06:10:13.341Z,98708.56
2023-06-04T06:12:41.814Z,98705.03
2023-06-04T06:15:13.837Z,98709.59
2023-06-04T06:17:43.189Z,98707.72
2023-06-04T06:20:18.877Z,98705.88
2023-06-04T06:22:47.978Z,98713.09
2023-06-04T06:25:17.110Z,98719.34
2023-06-04T06:27:45.866Z,98717.47
2023-06-04T06:30:16.695Z,98706.69
2023-06-04T06:32:45.133Z,98712.91
2023-06-04T06:35:15.090Z,98716.47
2023-06-04T06:37:44.546Z,98717.31
2023-06-04T06:40:13.797Z,98723.34
2023-06-04T06:42:42.235Z,98716.94
2023-06-04T06:45:12.140Z,98721.16
2023-06-04T06:47:40.883Z,98728.41
2023-06-04T06:50:12.071Z,98729.03
2023-06-04T06:52:41.983Z,98727.19
2023-06-04T06:55:11.032Z,98723.66
2023-06-04T06:57:39.632Z,98719.94
2023-06-04T07:00:11.129Z,98721.63
2023-06-04T07:02:39.631Z,98720.78
2023-06-04T07:05:08.790Z,98715.22
2023-06-04T07:07:37.757Z,98714.19
2023-06-04T07:10:08.617Z,98717.56
2023-06-04T07:12:37.171Z,98723.44
2023-06-04T07:15:07.232Z,98718.03
2023-06-04T07:17:35.767Z,98724.25
2023-06-04T07:20:05.156Z,98717.88
2023-06-04T07:22:33.672Z,98719.53
2023-06-04T07:25:02.535Z,98723.06
2023-06-04T07:27:32.980Z,98724.75
2023-06-04T07:30:01.585Z,98719.19
2023-06-04T07:32:30.152Z,98720.69
2023-06-04T07:34:58.596Z,98719.84
2023-06-04T07:37:27.208Z,98716.13
2023-06-04T07:39:55.655Z,98717.81
2023-06-04T07:42:24.248Z,98716.78
2023-06-04T07:44:53.980Z,98720.50
2023-06-04T07:47:22.904Z,98716.13
2023-06-04T07:50:01.886Z,98716.13
2023-06-04T07:52:31.366Z,98713.44
2023-06-04T07:54:59.794Z,98709.91
2023-06-04T07:57:28.213Z,98726.91
2023-06-04T07:59:58.158Z,98725.91
2023-06-04T08:02:26.784Z,98726.06
2023-06-04T08:04:55.579Z,98721.16
2023-06-04T08:07:24.189Z,98739.84
2023-06-04T08:09:53.038Z,98734.47
2023-06-04T08:12:21.736Z,98737.31
2023-06-04T08:14:51.327Z,98735.28
2023-06-04T08:17:21.254Z,98731.19
2023-06-04T08:19:49.778Z,98733.03
2023-06-04T08:22:18.319Z,98734.34
2023-06-04T08:24:47.194Z,98738.44
2023-06-04T08:27:15.738Z,98734.09
2023-06-04T08:29:44.273Z,98733.28
2023-06-04T08:32:13.122Z,98728.66
2023-06-04T08:34:43.065Z,98736.78
2023-06-04T08:37:11.671Z,98740.00
2023-06-04T08:39:40.190Z,98738.03
2023-06-04T08:42:09.780Z,98730.00
2023-06-04T08:44:38.273Z,98738.97
2023-06-04T08:47:08.094Z,98733.78
2023-06-04T08:49:38.083Z,98754.56
2023-06-04T08:52:08.276Z,98746.66
2023-06-04T08:54:37.005Z,98747.56
2023-06-04T08:57:06.100Z,98752.13
2023-06-04T08:59:34.577Z,98745.91
2023-06-04T09:02:03.261Z,98747.88
2023-06-04T09:04:31.930Z,98746.06
2023-06-04T09:07:02.519Z,98743.66
2023-06-04T09:09:32.617Z,98746.06
2023-06-04T09:12:01.223Z,98748.09
2023-06-04T09:14:29.852Z,98750.94
2023-06-04T09:16:59.953Z,98744.56
2023-06-04T09:19:28.518Z,98749.28
2023-06-04T09:21:58.551Z,98750.09
2023-06-04T09:24:28.059Z,98750.09
2023-06-04T09:26:58.114Z,98753.63
2023-06-04T09:29:26.701Z,98741.19
2023-06-04T09:32:00.602Z,98744.50
2023-06-04T09:34:32.239Z,98741.31
2023-06-04T09:37:01.098Z,98729.03
2023-06-04T09:39:29.797Z,98745.50
2023-06-04T09:42:03.013Z,98741.16
2023-06-04T09:44:31.607Z,98741.50
2023-06-04T09:47:00.497Z,98739.81
2023-06-04T09:49:30.483Z,98726.16
2023-06-04T09:51:59.233Z,98728.19
2023-06-04T09:54:38.950Z,98723.31
2023-06-04T09:57:18.108Z,98725.50
2023-06-04T09:59:47.859Z,98720.94
2023-06-04T10:02:16.348Z,98720.31
2023-06-04T10:04:44.834Z,98716.59
2023-06-04T10:07:14.627Z,98711.19
2023-06-04T10:09:46.840Z,98712.03
2023-06-04T10:12:18.025Z,98716.44
2023-06-04T10:14:57.103Z,98714.56
2023-06-04T10:17:26.865Z,98710.84
2023-06-04T10:19:55.573Z,98712.53
2023-06-04T10:22:24.212Z,98718.91
2023-06-04T10:24:52.665Z,98709.19
2023-06-04T10:27:23.242Z,98720.06
2023-06-04T10:29:53.754Z,98721.25
2023-06-04T10:32:22.264Z,98715.22
2023-06-04T10:34:51.127Z,98721.63
2023-06-04T10:37:23.027Z,98721.63
2023-06-04T10:39:55.286Z,98716.22
2023-06-04T10:42:25.217Z,98719.94
2023-06-04T10:44:57.362Z,98708.34
2023-06-04T10:47:27.429Z,98701.09
2023-06-04T10:49:56.420Z,98709.19
2023-06-04T10:52:25.039Z,98713.72
2023-06-04T10:54:54.674Z,98708.16
2023-06-04T10:57:24.625Z,98708.34
2023-06-04T10:59:56.927Z,98698.41
2023-06-04T11:02:25.506Z,98707.31
2023-06-04T11:05:07.341Z,98709.19
2023-06-04T11:07:46.337Z,98708.16
2023-06-04T11:10:15.433Z,98711.69
2023-06-04T11:12:46.277Z,98701.09
2023-06-04T11:15:14.944Z,98698.41
2023-06-04T11:18:01.894Z,98702.94
2023-06-04T11:20:30.644Z,98700.25
2023-06-04T11:23:00.962Z,98703.78
2023-06-04T11:25:30.279Z,98710.00
2023-06-04T11:28:00.374Z,98710.00
2023-06-04T11:30:28.894Z,98712.69
2023-06-04T11:33:04.968Z,98718.09
2023-06-04T11:35:33.644Z,98710.00
2023-06-04T11:38:02.028Z,98709.19
2023-06-04T11:40:31.901Z,98711.03
2023-06-04T11:43:01.656Z,98702.09
2023-06-04T11:45:31.480Z,98695.88
2023-06-04T11:48:00.054Z,98693.47
2023-06-04T11:50:30.889Z,98686.44
2023-06-04T11:52:59.321Z,98695.72
2023-06-04T11:55:27.783Z,98695.03
2023-06-04T11:57:56.440Z,98700.94
2023-06-04T12:00:26.374Z,98693.06
2023-06-04T12:02:56.143Z,98686.47
2023-06-04T12:05:26.397Z,98687.69
2023-06-04T12:07:56.006Z,98682.94
2023-06-04T12:10:25.425Z,98683.97
2023-06-04T12:12:57.117Z,98692.75
2023-06-04T12:15:27.215Z,98687.53
2023-06-04T12:17:56.023Z,98684.03
2023-06-04T12:20:38.155Z,98694.47
2023-06-04T12:23:07.494Z,98686.72
2023-06-04T12:25:38.781Z,98689.03
2023-06-04T12:28:07.476Z,98685.00
2023-06-04T12:30:41.002Z,98680.09
2023-06-04T12:33:09.812Z,98681.63
2023-06-04T12:35:38.210Z,98688.50
2023-06-04T12:38:10.496Z,98688.31
2023-06-04T12:40:39.102Z,98691.69
2023-06-04T12:43:08.379Z,98684.63
2023-06-04T12:45:36.988Z,98680.06
2023-06-04T12:48:07.449Z,98686.78
2023-06-04T12:50:39.318Z,98683.22
2023-06-04T12:53:07.794Z,98683.75
2023-06-04T12:55:36.245Z,98678.34
2023-06-04T12:58:04.742Z,98682.69
2023-06-04T13:00:33.114Z,98693.47
2023-06-04T13:03:01.618Z,98690.78
2023-06-04T13:05:31.560Z,98685.25
2023-06-04T13:08:00.139Z,98694.81
2023-06-04T13:10:28.534Z,98688.56
2023-06-04T13:12:56.969Z,98685.69
2023-06-04T13:15:26.449Z,98691.75
2023-06-04T13:17:54.924Z,98677.25
2023-06-04T13:20:23.747Z,98676.25
2023-06-04T13:22:53.521Z,98675.03
2023-06-04T13:25:21.912Z,98683.13
2023-06-04T13:27:51.345Z,98678.75
2023-06-04T13:30:19.770Z,98669.66
2023-06-04T13:32:48.623Z,98676.72
2023-06-04T13:35:17.681Z,98674.69
2023-06-04T13:37:46.105Z,98672.00
2023-06-04T13:40:16.386Z,98676.38
2023-06-04T13:42:44.998Z,98666.41
2023-06-04T13:45:13.743Z,98669.13
2023-06-04T13:47:42.257Z,98661.88
2023-06-04T13:50:12.294Z,98662.72
2023-06-04T13:52:40.844Z,98664.38
2023-06-04T13:55:10.126Z,98660.03
2023-06-04T13:57:40.332Z,98661.03
2023-06-04T14:00:10.864Z,98653.78
2023-06-04T14:02:39.419Z,98648.38
2023-06-04T14:05:09.062Z,98655.63
2023-06-04T14:07:37.468Z,98661.03
2023-06-04T14:10:07.148Z,98661.88
2023-06-04T14:12:36.390Z,98667.25
2023-06-04T14:15:08.091Z,98658.16
2023-06-04T14:17:36.734Z,98656.31
2023-06-04T14:20:08.644Z,98646.56
2023-06-04T14:22:37.351Z,98649.25
2023-06-04T14:25:06.392Z,98646.56
2023-06-04T14:27:34.893Z,98649.06
2023-06-04T14:30:05.323Z,98642.00
2023-06-04T14:32:35.209Z,98640.31
2023-06-04T14:35:03.729Z,98649.25
2023-06-04T14:37:32.219Z,98637.59
2023-06-04T14:40:00.655Z,98636.59
2023-06-04T14:42:29.123Z,98637.44
2023-06-04T14:44:57.677Z,98637.44
2023-06-04T14:47:27.724Z,98639.09
2023-06-04T14:49:56.264Z,98634.56
2023-06-04T14:52:24.821Z,98631.88
2023-06-04T14:54:55.444Z,98629.19
2023-06-04T14:57:24.271Z,98622.78
2023-06-04T14:59:52.707Z,98627.13
2023-06-04T15:02:21.850Z,98629.00
2023-06-04T15:04:52.018Z,98627.97
2023-06-04T15:07:20.660Z,98628.81
2023-06-04T15:09:49.804Z,98624.44
2023-06-04T15:12:20.702Z,98612.66
2023-06-04T15:14:49.137Z,98623.22
2023-06-04T15:17:17.940Z,98621.38
2023-06-04T15:19:46.367Z,98613.13
2023-06-04T15:22:16.477Z,98622.03
2023-06-04T15:24:45.356Z,98624.56
2023-06-04T15:27:13.805Z,98618.34
2023-06-04T15:29:42.490Z,98622.69
2023-06-04T15:32:10.919Z,98621.03
2023-06-04T15:34:39.609Z,98610.25
2023-06-04T15:37:08.260Z,98610.25
2023-06-04T15:39:38.205Z,98614.44
2023-06-04T15:42:08.052Z,98615.28
2023-06-04T15:44:36.621Z,98614.44
2023-06-04T15:47:05.493Z,98614.25
2023-06-04T15:49:33.965Z,98605.97
2023-06-04T15:52:02.562Z,98611.84
2023-06-04T15:54:44.943Z,98613.50
2023-06-04T15:57:16.884Z,98610.81
2023-06-04T15:59:46.352Z,98608.31
2023-06-04T16:02:15.033Z,98610.16
2023-06-04T16:04:43.673Z,98611.84
2023-06-04T16:07:12.162Z,98615.19
2023-06-04T16:09:40.725Z,98618.72
2023-06-04T16:12:09.664Z,98611.66
2023-06-04T16:14:39.505Z,98607.94
2023-06-04T16:17:08.321Z,98616.84
2023-06-04T16:19:36.746Z,98611.47
2023-06-04T16:22:05.314Z,98612.28
2023-06-04T16:24:33.850Z,98618.88
2023-06-04T16:27:02.398Z,98614.16
2023-06-04T16:29:30.885Z,98623.94
2023-06-04T16:32:01.054Z,98611.47
2023-06-04T16:34:29.733Z,98616.84
2023-06-04T16:36:58.457Z,98613.34
2023-06-04T16:39:26.979Z,98614.16
2023-06-04T16:41:59.288Z,98616.31
2023-06-04T16:44:27.935Z,98619.19
2023-06-04T16:46:56.670Z,98619.19
2023-06-04T16:49:26.522Z,98622.91
2023-06-04T16:51:55.106Z,98619.19
2023-06-04T16:54:23.564Z,98623.75
2023-06-04T16:56:52.526Z,98624.56
2023-06-04T16:59:20.999Z,98615.66
2023-06-04T17:01:49.543Z,98626.28
2023-06-04T17:04:18.134Z,98615.50
2023-06-04T17:06:47.942Z,98625.41
2023-06-04T17:09:16.460Z,98628.31
2023-06-04T17:11:45.116Z,98619.19
2023-06-04T17:14:13.654Z,98628.97
2023-06-04T17:16:42.104Z,98620.22
2023-06-04T17:19:10.632Z,98628.31
2023-06-04T17:21:39.266Z,98628.31
2023-06-04T17:24:10.005Z,98635.34
2023-06-04T17:26:38.670Z,98635.34
2023-06-04T17:29:07.178Z,98633.50
2023-06-04T17:31:35.615Z,98650.53
2023-06-04T17:34:04.247Z,98639.75
2023-06-04T17:36:33.056Z,98657.97
2023-06-04T17:39:01.722Z,98634.06
2023-06-04T17:41:31.528Z,98650.03
2023-06-04T17:44:00.397Z,98650.25
2023-06-04T17:46:28.895Z,98647.91
2023-06-04T17:48:57.514Z,98653.94
2023-06-04T17:51:26.064Z,98647.53
2023-06-04T17:53:54.886Z,98650.41
2023-06-04T17:56:23.512Z,98654.97
2023-06-04T17:58:53.428Z,98654.31
2023-06-04T18:01:22.250Z,98651.59
2023-06-04T18:03:51.211Z,98656.00
2023-06-04T18:06:19.731Z,98655.34
2023-06-04T18:08:48.353Z,98651.81
2023-06-04T18:11:16.867Z,98659.22
2023-06-04T18:13:45.887Z,98664.63
2023-06-04T18:16:16.969Z,98663.97
2023-06-04T18:18:45.901Z,98660.44
2023-06-04T18:21:14.471Z,98655.22
2023-06-04T18:23:49.951Z,98668.53
2023-06-04T18:26:18.571Z,98658.75
2023-06-04T18:28:47.047Z,98668.69
2023-06-04T18:31:17.020Z,98661.63
2023-06-04T18:33:53.405Z,98659.09
2023-06-04T18:36:21.862Z,98668.22
2023-06-04T18:38:50.252Z,98672.56
2023-06-04T18:41:19.366Z,98670.09
2023-06-04T18:43:47.888Z,98677.34
2023-06-04T18:46:17.803Z,98675.63
2023-06-04T18:48:48.203Z,98672.31
2023-06-04T18:51:16.681Z,98683.09
2023-06-04T18:53:45.378Z,98686.41
2023-06-04T18:56:13.879Z,98690.97
2023-06-04T18:58:43.279Z,98700.91
2023-06-04T19:01:12.199Z,98699.25
2023-06-04T19:03:42.055Z,98700.09
2023-06-04T19:06:11.126Z,98698.22
2023-06-04T19:08:39.665Z,98709.00
2023-06-04T19:11:09.316Z,98705.13
2023-06-04T19:13:37.772Z,98713.38
2023-06-04T19:16:07.402Z,98716.25
2023-06-04T19:18:36.061Z,98722.50
2023-06-04T19:21:05.908Z,98723.50
2023-06-04T19:23:35.435Z,98727.03
2023-06-04T19:26:03.871Z,98721.66
2023-06-04T19:28:32.447Z,98725.34
2023-06-04T19:31:01.039Z,98723.50
2023-06-04T19:33:33.510Z,98724.50
2023-06-04T19:36:02.376Z,98735.13
2023-06-04T19:38:32.251Z,98736.13
2023-06-04T19:41:02.496Z,98737.00
2023-06-04T19:43:30.960Z,98738.00
2023-06-04T19:46:02.862Z,98734.47
2023-06-04T19:48:31.735Z,98733.63
2023-06-04T19:51:00.183Z,98731.09
2023-06-04T19:53:28.894Z,98737.31
2023-06-04T19:55:58.724Z,98740.00
2023-06-04T19:58:27.918Z,98741.03
2023-06-04T20:00:57.001Z,98746.44
2023-06-04T20:03:26.170Z,98742.72
2023-06-04T20:05:55.994Z,98742.06
2023-06-04T20:08:24.652Z,98745.75
2023-06-04T20:10:53.529Z,98744.78
2023-06-04T20:13:23.332Z,98740.38
2023-06-04T20:15:51.787Z,98746.59
2023-06-04T20:18:20.562Z,98737.69
2023-06-04T20:20:52.965Z,98745.75
2023-06-04T20:23:21.658Z,98743.91
2023-06-04T20:25:50.291Z,98751.16
2023-06-04T20:28:18.690Z,98754.88
2023-06-04T20:30:48.725Z,98753.84
2023-06-04T20:33:17.637Z,98757.56
2023-06-04T20:35:46.307Z,98756.75
2023-06-04T20:38:14.731Z,98747.78
2023-06-04T20:40:43.205Z,98750.47
2023-06-04T20:43:11.817Z,98751.34
2023-06-04T20:45:40.188Z,98744.47
2023-06-04T20:48:10.148Z,98751.50
2023-06-04T20:50:38.648Z,98751.50
2023-06-04T20:53:07.079Z,98754.22
2023-06-04T20:55:36.395Z,98755.25
2023-06-04T20:58:04.889Z,98754.22
2023-06-04T21:00:33.806Z,98752.53
2023-06-04T21:03:02.310Z,98750.84
2023-06-04T21:05:32.234Z,98753.53
2023-06-04T21:08:04.512Z,98748.34
2023-06-04T21:10:33.196Z,98748.34
2023-06-04T21:13:02.117Z,98747.50
2023-06-04T21:15:30.638Z,98746.66
2023-06-04T21:17:59.169Z,98752.03
2023-06-04T21:20:27.647Z,98747.50
2023-06-04T21:22:57.459Z,98751.22
2023-06-04T21:25:25.981Z,98751.22
2023-06-04T21:27:54.374Z,98746.84
2023-06-04T21:30:22.756Z,98744.16
2023-06-04T21:32:51.494Z,98750.38
2023-06-04T21:35:20.233Z,98745.81
2023-06-04T21:37:48.787Z,98742.13
2023-06-04T21:40:18.590Z,98750.00
2023-06-04T21:42:47.101Z,98751.72
2023-06-04T21:45:16.399Z,98755.03
2023-06-04T21:47:45.471Z,98759.59
2023-06-04T21:50:14.179Z,98758.75
2023-06-04T21:52:42.549Z,98750.69
2023-06-04T21:55:11.233Z,98755.03
2023-06-04T21:57:41.132Z,98765.81
2023-06-04T22:00:12.689Z,98771.22
2023-06-04T22:02:41.400Z,98765.81
2023-06-04T22:05:10.884Z,98761.25
2023-06-04T22:07:39.447Z,98765.81
2023-06-04T22:10:10.096Z,98761.25
2023-06-04T22:12:38.508Z,98768.53
2023-06-04T22:15:10.048Z,98772.91
2023-06-04T22:17:38.556Z,98773.75
2023-06-04T22:20:09.215Z,98768.53
2023-06-04T22:22:37.668Z,98764.16
2023-06-04T22:25:06.712Z,98761.25
2023-06-04T22:27:35.301Z,98762.13
2023-06-04T22:30:03.903Z,98764.81
2023-06-04T22:32:33.771Z,98772.91
2023-06-04T22:35:02.191Z,98766.66
2023-06-04T22:37:30.750Z,98766.66
2023-06-04T22:40:00.497Z,98763.97
2023-06-04T22:42:29.049Z,98763.97
2023-06-04T22:44:57.829Z,98767.53
2023-06-04T22:47:26.922Z,98759.44
2023-06-04T22:49:56.964Z,98769.34
2023-06-04T22:52:27.070Z,98767.53
2023-06-04T22:54:55.812Z,98765.66
2023-06-04T22:57:24.458Z,98764.81
2023-06-04T22:59:53.352Z,98772.72
2023-06-04T23:02:21.999Z,98763.97
2023-06-04T23:04:50.488Z,98772.91
2023-06-04T23:07:20.362Z,98771.03
2023-06-04T23:09:49.183Z,98764.63
2023-06-04T23:12:17.823Z,98777.94
2023-06-04T23:14:47.023Z,98771.72
2023-06-04T23:17:15.771Z,98772.56
2023-06-04T23:19:44.253Z,98774.41
2023-06-04T23:22:12.965Z,98777.09
2023-06-04T23:24:42.874Z,98777.94
2023-06-04T23:27:11.604Z,98778.94
2023-06-04T23:29:40.052Z,98778.09
2023-06-04T23:32:08.650Z,98784.53
2023-06-04T23:34:37.194Z,98779.13
2023-06-04T23:37:06.839Z,98786.19
2023-06-04T23:39:35.365Z,98778.31
2023-06-04T23:42:05.587Z,98782.00
2023-06-04T23:44:34.058Z,98782.00
2023-06-04T23:47:02.580Z,98781.16
2023-06-04T23:49:31.043Z,98783.69
2023-06-04T23:51:59.963Z,98787.38
2023-06-04T23:54:28.432Z,98782.00
2023-06-04T23:56:56.839Z,98780.13
2023-06-04T23:59:27.549Z,98773.91
